createdAt,value
2022-07-25T00:01:33.248Z,99279.66
2022-07-25T00:03:59.733Z,99280.02
2022-07-25T00:06:26.594Z,99275.51
2022-07-25T00:08:53.027Z,99273.71
2022-07-25T00:11:19.556Z,99277.94
2022-07-25T00:13:46.483Z,99278.00
2022-07-25T00:16:13.114Z,99276.48
2022-07-25T00:18:39.697Z,99276.30
2022-07-25T00:21:06.438Z,99275.94
2022-07-25T00:23:33.439Z,99276.05
2022-07-25T00:26:01.317Z,99273.04
2022-07-25T00:28:27.794Z,99269.98
2022-07-25T00:30:55.311Z,99269.08
2022-07-25T00:33:21.826Z,99265.34
2022-07-25T00:35:48.200Z,99265.27
2022-07-25T00:38:14.623Z,99266.89
2022-07-25T00:40:41.238Z,99263.11
2022-07-25T00:43:07.813Z,99265.22
2022-07-25T00:45:34.257Z,99261.38
2022-07-25T00:48:00.705Z,99262.03
2022-07-25T00:50:27.152Z,99262.00
2022-07-25T00:52:54.561Z,99260.41
2022-07-25T00:55:23.902Z,99258.91
2022-07-25T00:57:51.156Z,99259.27
2022-07-25T01:00:18.132Z,99254.72
2022-07-25T01:02:44.913Z,99255.01
2022-07-25T01:05:11.845Z,99250.81
2022-07-25T01:07:39.280Z,99250.14
2022-07-25T01:10:07.675Z,99246.51
2022-07-25T01:12:54.753Z,99248.65
2022-07-25T01:15:23.741Z,99238.50
2022-07-25T01:17:50.882Z,99244.47
2022-07-25T01:20:25.339Z,99240.12
2022-07-25T01:22:52.736Z,99239.43
2022-07-25T01:25:19.251Z,99237.20
2022-07-25T01:27:51.411Z,99234.71
2022-07-25T01:30:23.979Z,99233.70
2022-07-25T01:32:50.721Z,99230.58
2022-07-25T01:35:17.387Z,99229.38
2022-07-25T01:37:45.826Z,99230.50
2022-07-25T01:40:13.300Z,99226.44
2022-07-25T01:42:40.034Z,99226.39
2022-07-25T01:45:08.740Z,99225.73
2022-07-25T01:47:35.238Z,99225.70
2022-07-25T01:50:01.898Z,99225.52
2022-07-25T01:52:28.771Z,99220.89
2022-07-25T01:54:55.303Z,99219.64
2022-07-25T01:57:23.094Z,99221.07
2022-07-25T01:59:59.180Z,99217.93
2022-07-25T02:02:26.249Z,99212.70
2022-07-25T02:04:53.174Z,99214.33
2022-07-25T02:07:19.778Z,99212.52
2022-07-25T02:09:46.629Z,99209.52
2022-07-25T02:12:13.101Z,99210.60
2022-07-25T02:14:40.292Z,99209.81
2022-07-25T02:17:07.138Z,99205.92
2022-07-25T02:19:33.744Z,99205.98
2022-07-25T02:22:00.222Z,99203.17
2022-07-25T02:24:26.812Z,99203.54
2022-07-25T02:26:53.256Z,99202.48
2022-07-25T02:29:21.876Z,99204.05
2022-07-25T02:31:49.192Z,99199.08
2022-07-25T02:34:15.639Z,99199.43
2022-07-25T02:36:45.259Z,99195.94
2022-07-25T02:39:11.906Z,99195.55
2022-07-25T02:41:38.366Z,99190.45
2022-07-25T02:44:06.080Z,99193.75
2022-07-25T02:46:33.045Z,99193.39
2022-07-25T02:49:00.125Z,99192.73
2022-07-25T02:51:26.531Z,99190.98
2022-07-25T02:53:58.193Z,99189.48
2022-07-25T02:56:29.945Z,99189.80
2022-07-25T02:58:59.414Z,99192.47
2022-07-25T03:01:26.436Z,99193.02
2022-07-25T03:03:53.060Z,99194.77
2022-07-25T03:06:19.692Z,99196.48
2022-07-25T03:08:47.402Z,99196.80
2022-07-25T03:11:14.051Z,99193.52
2022-07-25T03:13:40.499Z,99189.23
2022-07-25T03:16:07.624Z,99192.38
2022-07-25T03:18:34.051Z,99189.88
2022-07-25T03:21:02.075Z,99189.84
2022-07-25T03:23:30.442Z,99183.61
2022-07-25T03:25:57.423Z,99179.89
2022-07-25T03:28:24.782Z,99179.33
2022-07-25T03:30:52.376Z,99176.73
2022-07-25T03:33:19.147Z,99173.27
2022-07-25T03:35:45.742Z,99172.73
2022-07-25T03:38:12.202Z,99173.46
2022-07-25T03:40:38.965Z,99170.42
2022-07-25T03:43:05.790Z,99174.21
2022-07-25T03:45:32.302Z,99172.91
2022-07-25T03:47:58.852Z,99165.83
2022-07-25T03:50:25.270Z,99160.05
2022-07-25T03:52:51.784Z,99164.02
2022-07-25T03:55:18.747Z,99159.59
2022-07-25T03:57:45.520Z,99155.48
2022-07-25T04:00:12.403Z,99152.85
2022-07-25T04:02:39.489Z,99152.11
2022-07-25T04:05:07.693Z,99149.02
2022-07-25T04:07:35.114Z,99142.77
2022-07-25T04:10:01.806Z,99137.13
2022-07-25T04:12:28.346Z,99138.80
2022-07-25T04:14:54.836Z,99137.16
2022-07-25T04:17:21.530Z,99139.03
2022-07-25T04:19:48.036Z,99137.21
2022-07-25T04:22:16.275Z,99138.33
2022-07-25T04:24:43.357Z,99137.84
2022-07-25T04:27:09.801Z,99136.09
2022-07-25T04:29:36.865Z,99130.95
2022-07-25T04:32:03.676Z,99126.02
2022-07-25T04:34:30.606Z,99129.34
2022-07-25T04:36:57.427Z,99129.62
2022-07-25T04:39:23.979Z,99130.80
2022-07-25T04:41:50.968Z,99123.83
2022-07-25T04:44:17.341Z,99119.21
2022-07-25T04:46:43.952Z,99114.83
2022-07-25T04:49:10.930Z,99108.01
2022-07-25T04:51:37.491Z,99110.08
2022-07-25T04:54:04.583Z,99102.73
2022-07-25T04:56:31.402Z,99097.46
2022-07-25T04:59:00.586Z,99092.86
2022-07-25T05:01:29.734Z,99089.16
2022-07-25T05:03:56.302Z,99090.60
2022-07-25T05:06:25.964Z,99085.39
2022-07-25T05:08:52.412Z,99082.84
2022-07-25T05:11:19.249Z,99076.48
2022-07-25T05:13:45.630Z,99072.67
2022-07-25T05:16:12.291Z,99073.16
2022-07-25T05:18:38.742Z,99076.31
2022-07-25T05:21:05.112Z,99069.98
2022-07-25T05:23:32.014Z,99069.74
2022-07-25T05:25:58.463Z,99065.20
2022-07-25T05:28:24.891Z,99065.38
2022-07-25T05:30:51.417Z,99064.67
2022-07-25T05:33:18.283Z,99066.02
2022-07-25T05:35:46.322Z,99063.83
2022-07-25T05:38:12.739Z,99062.15
2022-07-25T05:40:39.209Z,99060.73
2022-07-25T05:43:05.661Z,99063.50
2022-07-25T05:45:32.236Z,99061.70
2022-07-25T05:47:58.687Z,99061.08
2022-07-25T05:50:25.144Z,99057.64
2022-07-25T05:52:52.053Z,99056.78
2022-07-25T05:55:19.226Z,99055.31
2022-07-25T05:57:46.063Z,99052.14
2022-07-25T06:00:13.009Z,99056.20
2022-07-25T06:02:39.586Z,99058.15
2022-07-25T06:05:06.334Z,99056.90
2022-07-25T06:07:32.829Z,99045.88
2022-07-25T06:09:59.343Z,99045.89
2022-07-25T06:12:25.839Z,99043.00
2022-07-25T06:14:52.704Z,99034.81
2022-07-25T06:17:20.167Z,99036.53
2022-07-25T06:19:46.801Z,99030.74
2022-07-25T06:22:13.335Z,99033.45
2022-07-25T06:24:41.284Z,99029.84
2022-07-25T06:27:08.742Z,99028.77
2022-07-25T06:29:35.258Z,99029.74
2022-07-25T06:32:01.931Z,99024.81
2022-07-25T06:34:29.960Z,99022.59
2022-07-25T06:36:57.243Z,99021.62
2022-07-25T06:39:25.203Z,99015.20
2022-07-25T06:41:51.766Z,99012.71
2022-07-25T06:44:18.477Z,99006.79
2022-07-25T06:46:45.093Z,99009.37
2022-07-25T06:49:11.712Z,99000.55
2022-07-25T06:51:38.381Z,98998.94
2022-07-25T06:54:05.021Z,98995.77
2022-07-25T06:56:32.495Z,98995.46
2022-07-25T06:58:59.837Z,98993.62
2022-07-25T07:01:27.360Z,98987.59
2022-07-25T07:03:54.019Z,98986.04
2022-07-25T07:06:20.556Z,98978.23
2022-07-25T07:08:48.306Z,98974.73
2022-07-25T07:11:16.224Z,98972.10
2022-07-25T07:13:42.896Z,98965.90
2022-07-25T07:16:09.640Z,98966.25
2022-07-25T07:18:37.223Z,98962.40
2022-07-25T07:21:05.208Z,98959.33
2022-07-25T07:23:33.004Z,98955.66
2022-07-25T07:25:59.777Z,98952.34
2022-07-25T07:28:26.480Z,98948.83
2022-07-25T07:31:15.330Z,98945.43
2022-07-25T07:33:39.787Z,98942.77
2022-07-25T07:36:06.592Z,98941.54
2022-07-25T07:38:33.995Z,98942.20
2022-07-25T07:41:00.501Z,98945.23
2022-07-25T07:43:30.365Z,98950.52
2022-07-25T07:46:01.609Z,98951.75
2022-07-25T07:48:30.402Z,98947.45
2022-07-25T07:50:57.638Z,98949.11
2022-07-25T07:53:44.147Z,98950.55
2022-07-25T07:56:11.637Z,98943.86
2022-07-25T07:58:44.810Z,98943.14
2022-07-25T08:01:23.784Z,98938.64
2022-07-25T08:03:52.818Z,98940.77
2022-07-25T08:06:19.377Z,98939.51
2022-07-25T08:08:45.973Z,98941.83
2022-07-25T08:11:14.034Z,98940.56
2022-07-25T08:13:40.536Z,98940.20
2022-07-25T08:16:08.202Z,98938.17
2022-07-25T08:18:34.732Z,98935.36
2022-07-25T08:21:05.512Z,98931.26
2022-07-25T08:23:34.824Z,98934.96
2022-07-25T08:26:01.882Z,98928.44
2022-07-25T08:28:28.429Z,98929.95
2022-07-25T08:30:54.951Z,98931.60
2022-07-25T08:33:21.842Z,98925.98
2022-07-25T08:35:54.191Z,98921.96
2022-07-25T08:38:23.299Z,98921.41
2022-07-25T08:40:50.567Z,98918.46
2022-07-25T08:43:18.247Z,98918.52
2022-07-25T08:45:50.150Z,98912.79
2022-07-25T08:48:19.485Z,98916.77
2022-07-25T08:50:50.584Z,98912.17
2022-07-25T08:53:35.763Z,98908.92
2022-07-25T08:56:13.342Z,98909.11
2022-07-25T08:58:43.786Z,98902.90
2022-07-25T09:01:12.152Z,98897.74
2022-07-25T09:03:40.903Z,98897.39
2022-07-25T09:06:17.074Z,98897.45
2022-07-25T09:08:59.783Z,98888.92
2022-07-25T09:11:37.030Z,98887.83
2022-07-25T09:14:13.187Z,98884.48
2022-07-25T09:16:44.323Z,98891.91
2022-07-25T09:19:16.139Z,98888.08
2022-07-25T09:21:45.700Z,98884.82
2022-07-25T09:24:16.626Z,98887.08
2022-07-25T09:26:49.257Z,98881.09
2022-07-25T09:29:22.019Z,98872.31
2022-07-25T09:31:49.403Z,98876.72
2022-07-25T09:34:44.073Z,98877.02
2022-07-25T09:37:16.187Z,98868.13
2022-07-25T09:39:47.151Z,98868.77
2022-07-25T09:42:27.534Z,98867.29
2022-07-25T09:45:02.367Z,98860.77
2022-07-25T09:47:30.344Z,98860.99
2022-07-25T09:49:57.228Z,98858.55
2022-07-25T09:52:23.752Z,98854.66
2022-07-25T09:54:50.819Z,98856.70
2022-07-25T09:57:17.356Z,98861.00
2022-07-25T09:59:44.382Z,98851.23
2022-07-25T10:02:34.399Z,98855.67
2022-07-25T10:05:18.191Z,98850.69
2022-07-25T10:07:48.787Z,98847.23
2022-07-25T10:10:26.323Z,98842.17
2022-07-25T10:13:10.284Z,98837.15
2022-07-25T10:15:48.436Z,98833.50
2022-07-25T10:18:17.983Z,98821.29
2022-07-25T10:20:46.081Z,98821.30
2022-07-25T10:23:27.083Z,98822.19
2022-07-25T10:26:09.112Z,98821.51
2022-07-25T10:28:47.000Z,98821.50
2022-07-25T10:31:18.023Z,98824.40
2022-07-25T10:33:51.829Z,98819.50
2022-07-25T10:36:20.691Z,98813.52
2022-07-25T10:38:50.208Z,98814.40
2022-07-25T10:41:16.874Z,98812.39
2022-07-25T10:43:48.711Z,98808.80
2022-07-25T10:46:22.632Z,98803.94
2022-07-25T10:49:03.663Z,98804.92
2022-07-25T10:51:56.072Z,98805.34
2022-07-25T10:54:22.587Z,98802.75
2022-07-25T10:56:58.179Z,98793.48
2022-07-25T10:59:28.003Z,98795.60
2022-07-25T11:01:54.961Z,98790.61
2022-07-25T11:04:23.282Z,98783.73
2022-07-25T11:06:49.965Z,98770.90
2022-07-25T11:09:26.873Z,98776.98
2022-07-25T11:11:56.911Z,98775.77
2022-07-25T11:14:32.827Z,98774.41
2022-07-25T11:17:19.622Z,98772.88
2022-07-25T11:20:20.843Z,98766.53
2022-07-25T11:22:55.213Z,98763.32
2022-07-25T11:25:22.813Z,98759.95
2022-07-25T11:27:56.669Z,98749.33
2022-07-25T11:30:23.953Z,98743.37
2022-07-25T11:32:55.536Z,98740.66
2022-07-25T11:35:28.746Z,98735.98
2022-07-25T11:37:56.623Z,98735.30
2022-07-25T11:40:25.202Z,98737.77
2022-07-25T11:42:53.886Z,98733.19
2022-07-25T11:45:30.498Z,98728.50
2022-07-25T11:48:07.041Z,98719.98
2022-07-25T11:50:36.609Z,98719.76
2022-07-25T11:53:10.834Z,98714.08
2022-07-25T11:55:46.535Z,98715.02
2022-07-25T11:58:14.021Z,98714.52
2022-07-25T12:00:46.253Z,98713.53
2022-07-25T12:03:19.606Z,98707.34
2022-07-25T12:05:49.652Z,98702.14
2022-07-25T12:08:22.668Z,98697.25
2022-07-25T12:10:55.077Z,98696.41
2022-07-25T12:13:27.189Z,98689.33
2022-07-25T12:15:56.690Z,98684.07
2022-07-25T12:18:23.562Z,98684.92
2022-07-25T12:20:50.390Z,98681.29
2022-07-25T12:23:16.910Z,98681.18
2022-07-25T12:25:45.639Z,98675.37
2022-07-25T12:28:13.341Z,98671.41
2022-07-25T12:30:41.888Z,98667.00
2022-07-25T12:33:11.372Z,98660.45
2022-07-25T12:35:39.910Z,98657.56
2022-07-25T12:38:07.553Z,98649.26
2022-07-25T12:40:34.095Z,98649.20
2022-07-25T12:43:00.639Z,98643.50
2022-07-25T12:45:27.699Z,98633.17
2022-07-25T12:47:55.010Z,98632.96
2022-07-25T12:50:25.101Z,98622.98
2022-07-25T12:52:51.913Z,98624.42
2022-07-25T12:55:19.471Z,98621.50
2022-07-25T12:57:50.309Z,98612.96
2022-07-25T13:00:19.995Z,98612.38
2022-07-25T13:02:48.459Z,98605.85
2022-07-25T13:05:15.435Z,98608.81
2022-07-25T13:07:42.120Z,98609.77
2022-07-25T13:10:09.785Z,98604.63
2022-07-25T13:12:36.759Z,98609.73
2022-07-25T13:15:03.728Z,98600.00
2022-07-25T13:17:32.336Z,98598.45
2022-07-25T13:19:59.630Z,98593.27
2022-07-25T13:22:27.493Z,98590.04
2022-07-25T13:24:55.181Z,98580.23
2022-07-25T13:27:23.302Z,98582.43
2022-07-25T13:29:53.554Z,98574.15
2022-07-25T13:32:20.657Z,98572.63
2022-07-25T13:34:47.125Z,98566.35
2022-07-25T13:37:14.004Z,98564.45
2022-07-25T13:39:41.833Z,98563.17
2022-07-25T13:42:08.714Z,98561.13
2022-07-25T13:44:35.744Z,98556.65
2022-07-25T13:47:02.335Z,98544.88
2022-07-25T13:49:30.819Z,98542.45
2022-07-25T13:51:57.315Z,98544.34
2022-07-25T13:54:23.741Z,98538.54
2022-07-25T13:56:50.170Z,98533.90
2022-07-25T13:59:21.180Z,98528.11
2022-07-25T14:01:50.573Z,98530.55
2022-07-25T14:04:17.274Z,98524.89
2022-07-25T14:06:43.877Z,98525.20
2022-07-25T14:09:11.165Z,98518.90
2022-07-25T14:11:38.072Z,98510.88
2022-07-25T14:14:04.543Z,98512.50
2022-07-25T14:16:33.176Z,98511.48
2022-07-25T14:19:00.701Z,98509.35
2022-07-25T14:21:28.485Z,98504.73
2022-07-25T14:23:55.987Z,98501.80
2022-07-25T14:26:22.494Z,98501.36
2022-07-25T14:28:49.384Z,98502.01
2022-07-25T14:31:16.853Z,98495.90
2022-07-25T14:33:43.285Z,98488.79
2022-07-25T14:36:10.661Z,98481.62
2022-07-25T14:38:37.143Z,98479.48
2022-07-25T14:41:06.684Z,98478.17
2022-07-25T14:43:37.566Z,98473.87
2022-07-25T14:46:04.828Z,98478.92
2022-07-25T14:48:31.437Z,98476.16
2022-07-25T14:50:57.927Z,98470.16
2022-07-25T14:53:24.419Z,98465.98
2022-07-25T14:55:50.900Z,98462.16
2022-07-25T14:58:17.847Z,98457.80
2022-07-25T15:00:45.498Z,98454.77
2022-07-25T15:03:12.182Z,98451.16
2022-07-25T15:05:40.584Z,98444.98
2022-07-25T15:08:07.599Z,98444.02
2022-07-25T15:10:34.583Z,98444.23
2022-07-25T15:13:28.685Z,98439.98
2022-07-25T15:15:49.508Z,98433.37
2022-07-25T15:18:15.948Z,98433.90
2022-07-25T15:20:43.610Z,98425.56
2022-07-25T15:23:11.438Z,98424.50
2022-07-25T15:26:01.051Z,98418.89
2022-07-25T15:28:25.374Z,98419.08
2022-07-25T15:30:51.858Z,98415.95
2022-07-25T15:33:18.824Z,98413.98
2022-07-25T15:35:46.586Z,98413.60
2022-07-25T15:38:15.038Z,98411.75
2022-07-25T15:40:45.230Z,98404.54
2022-07-25T15:43:12.010Z,98405.39
2022-07-25T15:45:40.257Z,98402.31
2022-07-25T15:48:08.678Z,98398.72
2022-07-25T15:50:36.385Z,98402.14
2022-07-25T15:53:04.466Z,98398.48
2022-07-25T15:55:32.830Z,98391.85
2022-07-25T15:58:00.081Z,98397.99
2022-07-25T16:00:29.826Z,98389.94
2022-07-25T16:02:58.034Z,98390.24
2022-07-25T16:05:25.038Z,98390.03
2022-07-25T16:07:52.319Z,98387.12
2022-07-25T16:10:18.835Z,98386.77
2022-07-25T16:12:45.423Z,98384.31
2022-07-25T16:15:12.147Z,98379.14
2022-07-25T16:17:38.577Z,98374.13
2022-07-25T16:20:08.612Z,98376.54
2022-07-25T16:22:35.507Z,98373.04
2022-07-25T16:25:03.660Z,98371.92
2022-07-25T16:27:30.289Z,98372.38
2022-07-25T16:29:56.881Z,98375.77
2022-07-25T16:32:23.592Z,98376.19
2022-07-25T16:34:50.025Z,98376.06
2022-07-25T16:37:19.707Z,98377.58
2022-07-25T16:39:46.221Z,98376.89
2022-07-25T16:42:12.766Z,98373.08
2022-07-25T16:44:39.252Z,98372.40
2022-07-25T16:47:07.636Z,98368.64
2022-07-25T16:49:34.308Z,98367.67
2022-07-25T16:52:00.824Z,98367.35
2022-07-25T16:54:27.786Z,98364.52
2022-07-25T16:56:57.274Z,98363.28
2022-07-25T16:59:26.717Z,98360.42
2022-07-25T17:01:53.302Z,98360.20
2022-07-25T17:04:19.980Z,98358.50
2022-07-25T17:06:46.732Z,98354.79
2022-07-25T17:09:13.806Z,98352.23
2022-07-25T17:11:40.607Z,98347.81
2022-07-25T17:14:07.501Z,98349.92
2022-07-25T17:16:34.519Z,98348.83
2022-07-25T17:19:03.419Z,98345.84
2022-07-25T17:21:30.299Z,98342.64
2022-07-25T17:23:56.784Z,98337.80
2022-07-25T17:26:23.380Z,98335.31
2022-07-25T17:28:50.475Z,98333.75
2022-07-25T17:31:18.355Z,98331.06
2022-07-25T17:33:44.868Z,98328.36
2022-07-25T17:36:11.498Z,98328.88
2022-07-25T17:38:42.487Z,98329.85
2022-07-25T17:41:13.073Z,98327.91
2022-07-25T17:43:40.847Z,98323.71
2022-07-25T17:46:10.519Z,98319.20
2022-07-25T17:48:37.047Z,98318.02
2022-07-25T17:51:05.574Z,98315.98
2022-07-25T17:53:32.539Z,98313.12
2022-07-25T17:55:59.020Z,98311.39
2022-07-25T17:58:25.515Z,98313.52
2022-07-25T18:00:51.921Z,98304.38
2022-07-25T18:03:18.568Z,98307.29
2022-07-25T18:05:45.101Z,98300.75
2022-07-25T18:08:11.519Z,98301.01
2022-07-25T18:10:38.185Z,98291.56
2022-07-25T18:13:04.754Z,98285.80
2022-07-25T18:15:31.707Z,98284.35
2022-07-25T18:17:58.791Z,98280.78
2022-07-25T18:20:27.425Z,98281.75
2022-07-25T18:22:58.011Z,98279.46
2022-07-25T18:25:24.461Z,98282.04
2022-07-25T18:27:50.932Z,98284.58
2022-07-25T18:30:18.689Z,98282.33
2022-07-25T18:32:45.298Z,98281.55
2022-07-25T18:35:12.847Z,98279.09
2022-07-25T18:37:39.420Z,98278.46
2022-07-25T18:40:07.487Z,98283.11
2022-07-25T18:42:35.401Z,98286.11
2022-07-25T18:45:04.332Z,98290.34
2022-07-25T18:47:34.476Z,98293.21
2022-07-25T18:50:03.220Z,98293.63
2022-07-25T18:52:34.469Z,98293.52
2022-07-25T18:55:08.412Z,98293.75
2022-07-25T18:57:37.003Z,98297.30
2022-07-25T19:00:07.068Z,98300.39
2022-07-25T19:02:34.341Z,98301.39
2022-07-25T19:05:01.314Z,98305.64
2022-07-25T19:07:30.582Z,98306.83
2022-07-25T19:09:57.081Z,98307.56
2022-07-25T19:12:26.031Z,98310.59
2022-07-25T19:14:54.061Z,98318.09
2022-07-25T19:17:20.573Z,98321.23
2022-07-25T19:19:47.078Z,98326.46
2022-07-25T19:22:13.548Z,98321.77
2022-07-25T19:24:40.120Z,98320.95
2022-07-25T19:27:06.668Z,98317.66
2022-07-25T19:29:33.479Z,98314.94
2022-07-25T19:32:00.014Z,98309.83
2022-07-25T19:34:29.582Z,98310.51
2022-07-25T19:36:56.314Z,98310.06
2022-07-25T19:39:23.961Z,98311.87
2022-07-25T19:41:53.651Z,98314.45
2022-07-25T19:44:23.257Z,98318.63
2022-07-25T19:46:49.932Z,98319.94
2022-07-25T19:49:16.660Z,98316.45
2022-07-25T19:51:43.294Z,98315.67
2022-07-25T19:54:10.740Z,98314.47
2022-07-25T19:56:37.727Z,98311.55
2022-07-25T19:59:06.113Z,98311.81
2022-07-25T20:01:36.226Z,98304.77
2022-07-25T20:04:05.474Z,98300.56
2022-07-25T20:06:36.300Z,98296.31
2022-07-25T20:09:03.900Z,98293.71
2022-07-25T20:11:30.747Z,98286.73
2022-07-25T20:13:57.406Z,98279.39
2022-07-25T20:16:24.148Z,98280.29
2022-07-25T20:18:51.201Z,98280.30
2022-07-25T20:21:18.019Z,98275.99
2022-07-25T20:23:47.556Z,98277.89
2022-07-25T20:26:14.900Z,98275.71
2022-07-25T20:28:41.777Z,98267.96
2022-07-25T20:31:09.205Z,98267.51
2022-07-25T20:33:36.226Z,98263.41
2022-07-25T20:36:03.852Z,98266.02
2022-07-25T20:38:32.005Z,98255.17
2022-07-25T20:40:59.948Z,98249.17
2022-07-25T20:43:27.939Z,98249.36
2022-07-25T20:45:54.680Z,98248.55
2022-07-25T20:48:21.215Z,98247.02
2022-07-25T20:50:48.005Z,98245.76
2022-07-25T20:53:14.628Z,98242.23
2022-07-25T20:55:41.194Z,98239.89
2022-07-25T20:58:07.674Z,98237.10
2022-07-25T21:00:34.440Z,98238.20
2022-07-25T21:03:02.633Z,98234.80
2022-07-25T21:05:29.055Z,98244.97
2022-07-25T21:07:56.287Z,98239.03
2022-07-25T21:10:23.244Z,98237.98
2022-07-25T21:12:49.744Z,98237.73
2022-07-25T21:15:16.252Z,98238.09
2022-07-25T21:17:43.521Z,98241.77
2022-07-25T21:20:13.409Z,98246.80
2022-07-25T21:22:40.958Z,98254.16
2022-07-25T21:25:08.884Z,98261.37
2022-07-25T21:27:36.619Z,98265.40
2022-07-25T21:30:05.228Z,98269.91
2022-07-25T21:32:32.007Z,98264.60
2022-07-25T21:34:59.189Z,98263.58
2022-07-25T21:37:25.947Z,98259.85
2022-07-25T21:39:52.596Z,98257.56
2022-07-25T21:42:19.144Z,98249.34
2022-07-25T21:44:45.640Z,98237.26
2022-07-25T21:47:12.185Z,98231.77
2022-07-25T21:49:57.399Z,98233.88
2022-07-25T21:52:29.829Z,98232.27
2022-07-25T21:55:04.741Z,98225.11
2022-07-25T21:57:31.431Z,98218.77
2022-07-25T21:59:58.060Z,98215.56
2022-07-25T22:02:25.075Z,98210.54
2022-07-25T22:04:51.583Z,98205.50
2022-07-25T22:07:19.091Z,98193.16
2022-07-25T22:09:45.508Z,98182.95
2022-07-25T22:12:12.094Z,98175.70
2022-07-25T22:14:38.652Z,98175.39
2022-07-25T22:17:05.267Z,98170.20
2022-07-25T22:19:32.218Z,98168.98
2022-07-25T22:21:58.763Z,98169.05
2022-07-25T22:24:25.261Z,98169.85
2022-07-25T22:26:51.637Z,98168.92
2022-07-25T22:29:18.473Z,98168.55
2022-07-25T22:31:45.040Z,98165.20
2022-07-25T22:34:11.951Z,98156.52
2022-07-25T22:36:38.385Z,98153.73
2022-07-25T22:39:05.244Z,98152.58
2022-07-25T22:41:32.029Z,98153.59
2022-07-25T22:44:00.078Z,98154.95
2022-07-25T22:46:31.008Z,98158.77
2022-07-25T22:48:58.449Z,98158.77
2022-07-25T22:51:25.971Z,98159.66
2022-07-25T22:53:53.211Z,98157.70
2022-07-25T22:56:20.186Z,98157.27
2022-07-25T22:58:47.023Z,98155.39
2022-07-25T23:01:17.140Z,98156.65
2022-07-25T23:03:43.774Z,98156.60
2022-07-25T23:06:10.940Z,98162.58
2022-07-25T23:08:37.480Z,98160.78
2022-07-25T23:11:05.521Z,98162.73
2022-07-25T23:13:32.946Z,98157.41
2022-07-25T23:15:59.584Z,98155.06
2022-07-25T23:18:26.088Z,98161.99
2022-07-25T23:20:52.586Z,98160.30
2022-07-25T23:23:20.397Z,98163.00
2022-07-25T23:25:46.925Z,98160.77
2022-07-25T23:28:13.314Z,98159.75
2022-07-25T23:30:40.698Z,98159.90
2022-07-25T23:33:08.177Z,98159.10
2022-07-25T23:35:34.743Z,98157.02
2022-07-25T23:38:01.494Z,98152.61
2022-07-25T23:40:27.908Z,98147.17
2022-07-25T23:42:54.357Z,98146.81
2022-07-25T23:45:22.143Z,98147.83
2022-07-25T23:47:52.047Z,98150.54
2022-07-25T23:50:19.601Z,98152.06
2022-07-25T23:52:45.994Z,98152.30
2022-07-25T23:55:12.493Z,98152.76
2022-07-25T23:57:39.107Z,98153.27
